Time;durP1;ratioP1;P1;durP2;ratioP2;P2;SDS_P1;SDS_P2;PMS_P1;PMS_P2;Temp;Humidity;BMP_temperature;BMP_pressure;BME280_temperature;BME280_humidity;BME280_pressure;Samples;Min_cycle;Max_cycle;Signal;HPM_P1;HPM_P2
2022/08/08 00:02:48;;;;;;;4.95;2.02;;;;;;;12.93;87.83;99642.70;3932373;89;21174;-85
2022/08/08 00:09:02;;;;;;;6.85;2.17;;;;;;;12.90;88.27;99644.02;3937802;89;21072;-85
2022/08/08 00:15:11;;;;;;;3.17;2.27;;;;;;;12.77;88.52;99635.81;3925342;89;21588;-85
2022/08/08 00:21:17;;;;;;;4.10;2.00;;;;;;;12.79;88.76;99637.61;3921359;88;21152;-84
2022/08/08 00:27:20;;;;;;;5.33;2.53;;;;;;;12.82;89.38;99629.98;3920180;88;21028;-83
2022/08/08 00:33:32;;;;;;;5.28;2.50;;;;;;;12.72;89.40;99627.31;3912535;89;21762;-84
2022/08/08 00:39:53;;;;;;;2.95;2.27;;;;;;;12.66;89.87;99620.58;3847676;91;21105;-84
2022/08/08 00:46:33;;;;;;;4.55;2.20;;;;;;;12.63;90.09;99628.99;3908903;89;21021;-84
2022/08/08 00:52:52;;;;;;;5.62;2.35;;;;;;;12.90;90.90;99632.46;3912247;89;21048;-85
2022/08/08 00:59:24;;;;;;;5.50;2.45;;;;;;;12.99;90.55;99634.90;3902618;89;21068;-85
2022/08/08 01:06:14;;;;;;;4.42;2.60;;;;;;;12.94;90.45;99629.73;3912087;89;21111;-84
2022/08/08 01:13:03;;;;;;;3.20;2.17;;;;;;;12.82;90.41;99632.16;3908022;89;21764;-85
2022/08/08 01:19:45;;;;;;;4.65;2.55;;;;;;;12.67;90.46;99618.63;3849593;91;22304;-84
2022/08/08 01:26:23;;;;;;;4.50;2.67;;;;;;;12.59;91.21;99618.52;3921877;88;21617;-84
2022/08/08 01:32:49;;;;;;;6.17;2.80;;;;;;;12.60;91.33;99612.45;3930751;89;20994;-84
2022/08/08 01:39:16;;;;;;;3.97;2.73;;;;;;;12.50;91.34;99611.73;3925762;90;21042;-84
2022/08/08 01:45:54;;;;;;;;;;;;;;;12.59;92.10;99608.91;3930703;91;21005;-85
2022/08/08 01:52:18;;;;;;;3.90;2.35;;;;;;;12.71;93.27;99612.58;3898282;90;20128;-84
2022/08/08 01:59:09;;;;;;;5.03;2.37;;;;;;;12.80;92.55;99614.45;3907989;88;21550;-84
2022/08/08 02:05:58;;;;;;;2.45;2.25;;;;;;;12.76;93.67;99604.02;3899133;90;21079;-84
2022/08/08 02:12:10;;;;;;;3.10;2.10;;;;;;;12.76;92.54;99615.00;3905724;88;21102;-84
2022/08/08 02:18:56;;;;;;;6.22;2.70;;;;;;;12.76;92.79;99610.89;3918758;89;21111;-84
2022/08/08 02:25:39;;;;;;;5.75;2.42;;;;;;;12.76;92.92;99619.13;3929924;89;21052;-85
2022/08/08 02:31:57;;;;;;;3.72;2.42;;;;;;;12.70;92.44;99599.42;3854634;89;48923;-84
2022/08/08 02:38:21;;;;;;;5.58;3.00;;;;;;;12.66;93.04;99601.34;3925498;89;21173;-85
2022/08/08 02:44:50;;;;;;;6.33;2.52;;;;;;;12.69;92.98;99608.84;3907304;91;21101;-85
2022/08/08 02:51:46;;;;;;;4.90;2.37;;;;;;;12.68;92.93;99612.77;3899157;91;21916;-85
2022/08/08 02:58:20;;;;;;;4.53;2.30;;;;;;;12.68;93.03;99612.77;3794259;91;21606;-85
2022/08/08 03:11:25;;;;;;;3.20;1.95;;;;;;;12.70;93.11;99597.28;3893501;90;21092;-85
2022/08/08 03:17:46;;;;;;;2.83;1.80;;;;;;;12.82;93.50;99601.94;3873123;89;21076;-85
2022/08/08 03:23:47;;;;;;;2.62;1.90;;;;;;;12.95;93.40;99632.70;3920211;88;21063;-84
2022/08/08 03:30:00;;;;;;;3.12;2.05;;;;;;;13.04;92.96;99628.53;3928869;90;21139;-84
2022/08/08 03:36:14;;;;;;;7.33;2.05;;;;;;;13.05;92.54;99634.22;3911995;90;21052;-85
2022/08/08 03:42:17;;;;;;;4.50;2.00;;;;;;;13.14;92.96;99639.44;3928934;88;22029;-84
2022/08/08 03:48:19;;;;;;;5.10;2.02;;;;;;;13.25;92.49;99636.98;3967277;90;21028;-84
2022/08/08 03:54:28;;;;;;;6.33;1.95;;;;;;;13.18;92.10;99648.50;3881841;91;21564;-85
2022/08/08 04:00:34;;;;;;;3.42;1.98;;;;;;;13.21;92.18;99651.30;3909282;90;21631;-84
2022/08/08 04:06:38;;;;;;;4.85;2.22;;;;;;;13.25;92.46;99654.09;3907580;90;21054;-84
2022/08/08 04:12:40;;;;;;;5.40;2.37;;;;;;;13.28;92.74;99660.98;3823677;91;21979;-83
2022/08/08 04:18:42;;;;;;;3.15;2.10;;;;;;;13.28;93.08;99657.46;3875001;90;21069;-84
2022/08/08 04:24:43;;;;;;;5.00;2.27;;;;;;;13.27;93.01;99662.73;3929320;90;21056;-85
2022/08/08 04:30:47;;;;;;;4.30;2.77;;;;;;;13.22;92.96;99668.56;3906743;90;21091;-84
2022/08/08 04:36:50;;;;;;;4.50;2.65;;;;;;;13.20;93.44;99672.30;3894935;90;21064;-84
2022/08/08 04:42:52;;;;;;;6.55;2.95;;;;;;;13.21;93.39;99677.98;3900095;89;21116;-84
2022/08/08 04:48:53;;;;;;;7.10;3.42;;;;;;;13.29;93.65;99679.66;3909575;89;21696;-84
2022/08/08 04:54:55;;;;;;;6.80;3.20;;;;;;;13.31;93.66;99673.20;3892235;89;21182;-84
2022/08/08 05:00:56;;;;;;;6.87;3.10;;;;;;;13.33;93.74;99670.84;3896557;90;21677;-84
2022/08/08 05:06:58;;;;;;;5.47;2.87;;;;;;;13.40;93.89;99681.36;3893354;89;21608;-84
2022/08/08 05:12:59;;;;;;;7.78;3.42;;;;;;;13.42;94.06;99685.11;3907202;90;21869;-84
2022/08/08 05:19:01;;;;;;;5.05;2.55;;;;;;;13.39;93.88;99678.99;3892339;90;21113;-83
2022/08/08 05:25:04;;;;;;;6.33;3.10;;;;;;;13.42;94.26;99684.50;3855216;90;21085;-84
2022/08/08 05:31:06;;;;;;;4.67;2.33;;;;;;;13.50;94.21;99686.77;3881627;90;21124;-84
2022/08/08 05:37:10;;;;;;;4.90;2.77;;;;;;;13.57;94.47;99688.20;3841629;90;21080;-85
2022/08/08 05:43:17;;;;;;;5.47;2.70;;;;;;;13.56;94.79;99686.02;3844728;90;21137;-83
2022/08/08 05:49:19;;;;;;;6.28;2.77;;;;;;;13.55;94.94;99683.66;3847714;91;21121;-83
2022/08/08 05:55:21;;;;;;;3.90;2.12;;;;;;;13.65;95.08;99698.91;3846833;91;21117;-84
2022/08/08 06:01:25;;;;;;;5.35;2.55;;;;;;;13.74;95.07;99696.63;3840078;90;21411;-83
2022/08/08 06:07:28;;;;;;;4.58;2.42;;;;;;;13.79;95.23;99703.17;3828093;90;21682;-83
2022/08/08 06:13:31;;;;;;;6.72;2.35;;;;;;;13.81;95.56;99709.06;3847659;90;21065;-83
2022/08/08 06:19:33;;;;;;;4.75;2.17;;;;;;;13.90;95.29;99719.20;3878996;90;21036;-84
2022/08/08 06:25:38;;;;;;;4.65;2.33;;;;;;;13.83;95.37;99732.08;3915947;89;21206;-83
2022/08/08 06:31:41;;;;;;;3.45;2.00;;;;;;;13.84;95.01;99723.44;3907758;88;21147;-83
2022/08/08 06:37:47;;;;;;;2.42;1.85;;;;;;;13.90;95.55;99722.53;3914307;89;21008;-83
2022/08/08 06:43:52;;;;;;;5.37;2.30;;;;;;;14.06;95.74;99742.34;3907494;90;21167;-83
2022/08/08 06:49:56;;;;;;;5.22;2.12;;;;;;;14.20;95.68;99745.99;3901523;90;21049;-84
2022/08/08 06:55:58;;;;;;;5.75;2.50;;;;;;;14.22;94.33;99751.11;3895857;90;21141;-83
2022/08/08 07:02:03;;;;;;;3.40;1.90;;;;;;;14.35;94.35;99742.80;3906043;89;21143;-84
2022/08/08 07:08:17;;;;;;;6.25;2.37;;;;;;;14.45;93.54;99737.97;3899470;89;21061;-85
2022/08/08 07:14:28;;;;;;;7.05;2.95;;;;;;;14.53;93.90;99740.19;3904540;90;21085;-84
2022/08/08 07:20:36;;;;;;;6.35;2.45;;;;;;;14.71;93.84;99737.75;3863072;88;22073;-84
2022/08/08 07:26:39;;;;;;;;;;;;;;;14.85;93.75;99732.32;3845781;90;21887;-83
2022/08/08 07:32:41;;;;;;;8.43;2.02;;;;;;;15.11;93.36;99738.17;3828602;91;20191;-84
2022/08/08 07:38:47;;;;;;;3.98;1.75;;;;;;;15.36;93.14;99741.83;3889785;90;21532;-85
2022/08/08 07:44:49;;;;;;;8.03;1.95;;;;;;;15.80;92.49;99755.38;3837308;90;21089;-84
2022/08/08 07:51:05;;;;;;;4.03;1.82;;;;;;;16.29;92.35;99755.42;3841682;90;21030;-84
2022/08/08 07:57:19;;;;;;;5.22;1.85;;;;;;;16.82;91.14;99752.05;3832492;91;21211;-84
2022/08/08 08:03:37;;;;;;;3.70;1.67;;;;;;;17.11;88.22;99754.95;3820580;91;21518;-84
2022/08/08 08:09:40;;;;;;;6.60;1.90;;;;;;;17.29;88.55;99752.91;3855527;91;21126;-83
2022/08/08 08:15:43;;;;;;;5.10;1.55;;;;;;;17.48;88.26;99746.92;3839383;91;21132;-84
2022/08/08 08:21:47;;;;;;;5.75;1.52;;;;;;;17.73;87.56;99751.73;3871598;89;21179;-84
2022/08/08 08:27:52;;;;;;;3.10;1.12;;;;;;;18.07;87.19;99761.01;3881243;90;22090;-83
2022/08/08 08:33:54;;;;;;;3.62;1.30;;;;;;;18.64;87.27;99759.40;3897380;89;21111;-83
2022/08/08 08:39:56;;;;;;;3.87;1.15;;;;;;;19.28;85.18;99763.70;3882453;90;21100;-85
2022/08/08 08:46:00;;;;;;;3.37;1.02;;;;;;;19.75;83.85;99762.70;3896062;90;21056;-86
2022/08/08 08:52:04;;;;;;;3.25;1.00;;;;;;;20.06;83.52;99769.02;3909646;89;21073;-84
2022/08/08 08:58:38;;;;;;;5.53;1.30;;;;;;;20.09;82.09;99764.78;3895266;89;21104;-84
2022/08/08 09:04:43;;;;;;;3.87;1.12;;;;;;;20.30;79.59;99772.03;3933369;90;21002;-85
2022/08/08 09:10:48;;;;;;;6.28;1.15;;;;;;;20.66;79.66;99768.05;3915844;90;21143;-84
2022/08/08 09:16:52;;;;;;;2.95;1.00;;;;;;;20.94;78.19;99764.80;3937370;90;21056;-85
2022/08/08 09:22:55;;;;;;;3.55;1.07;;;;;;;21.06;76.84;99762.20;3886660;90;21052;-85
2022/08/08 09:29:25;;;;;;;5.03;1.45;;;;;;;21.33;76.24;99756.50;3822950;92;21127;-85
2022/08/08 09:35:45;;;;;;;4.10;1.10;;;;;;;21.80;74.83;99752.31;3883327;89;21612;-86
2022/08/08 09:42:02;;;;;;;3.08;0.80;;;;;;;22.33;71.60;99753.25;3879704;90;21576;-86
2022/08/08 09:48:08;;;;;;;2.25;0.80;;;;;;;23.18;70.67;99746.27;3908974;90;21521;-85
2022/08/08 09:54:09;;;;;;;2.20;0.80;;;;;;;23.69;69.42;99751.41;3897406;90;21888;-85
2022/08/08 10:00:14;;;;;;;5.58;0.90;;;;;;;23.97;68.32;99743.58;3896371;90;21196;-85
2022/08/08 10:06:18;;;;;;;1.47;0.70;;;;;;;24.49;60.18;99742.48;3893480;90;22247;-88
2022/08/08 10:12:39;;;;;;;5.22;1.20;;;;;;;24.82;60.34;99743.78;3928298;90;21117;-87
2022/08/08 10:18:40;;;;;;;4.05;0.90;;;;;;;25.68;61.45;99741.63;3962034;82;77506;-90
2022/08/08 10:24:46;;;;;;;1.60;0.60;;;;;;;26.02;59.25;99733.09;4052831;86;21581;-90
2022/08/08 10:30:57;;;;;;;4.90;0.87;;;;;;;26.15;57.93;99738.75;4044625;86;21056;-90
2022/08/08 10:37:02;;;;;;;1.95;0.57;;;;;;;25.70;55.45;99738.52;4058613;86;21084;-90
2022/08/08 10:43:11;;;;;;;2.30;0.68;;;;;;;25.63;55.63;99743.63;4059209;86;21124;-90
2022/08/08 10:49:23;;;;;;;1.65;0.62;;;;;;;25.49;53.86;99732.95;4050688;86;21068;-89
2022/08/08 10:55:26;;;;;;;1.82;0.53;;;;;;;25.49;49.13;99735.75;4038233;86;21084;-90
2022/08/08 11:01:31;;;;;;;4.35;0.47;;;;;;;25.49;52.14;99732.34;4035835;86;21398;-91
2022/08/08 11:07:38;;;;;;;1.43;0.63;;;;;;;25.44;50.00;99737.13;4023195;86;21060;-90
2022/08/08 11:13:45;;;;;;;2.08;0.70;;;;;;;25.45;45.82;99728.87;4010742;86;21069;-88
2022/08/08 11:19:52;;;;;;;6.00;0.60;;;;;;;25.04;49.05;99729.19;4037210;86;21100;-90
2022/08/08 11:25:54;;;;;;;2.20;0.65;;;;;;;24.50;47.32;99720.25;4000572;87;68472;-87
2022/08/08 11:31:56;;;;;;;1.80;0.53;;;;;;;24.75;46.25;99724.41;4074674;86;21973;-90
2022/08/08 11:37:58;;;;;;;3.67;0.72;;;;;;;24.37;47.30;99718.08;4071859;86;21079;-88
2022/08/08 11:44:01;;;;;;;1.77;0.70;;;;;;;24.54;47.76;99722.33;4067484;86;21046;-91
2022/08/08 11:50:12;;;;;;;5.37;0.78;;;;;;;24.58;46.43;99717.38;4038497;86;21740;-87
2022/08/08 11:56:24;;;;;;;12.15;1.52;;;;;;;24.06;45.40;99718.52;4047919;85;21114;-93
2022/08/08 12:02:34;;;;;;;5.37;1.12;;;;;;;23.66;44.96;99714.56;4059446;86;21607;-91
2022/08/08 12:08:40;;;;;;;6.67;2.90;;;;;;;23.49;46.98;99702.67;4060002;86;21054;-90
2022/08/08 12:14:42;;;;;;;9.85;4.37;;;;;;;23.38;48.18;99674.30;4060565;86;21585;-90
2022/08/08 12:20:43;;;;;;;4.92;1.32;;;;;;;23.38;48.18;99674.30;4071489;86;21099;-89
2022/08/08 12:26:52;;;;;;;9.30;1.42;;;;;;;23.43;47.78;99690.48;4090150;85;21050;-89
2022/08/08 12:32:58;;;;;;;2.83;1.40;;;;;;;23.26;49.04;99691.80;4101972;85;21624;-90
2022/08/08 12:38:58;;;;;;;3.92;1.05;;;;;;;23.09;48.78;99684.69;4104184;85;21146;-91
2022/08/08 12:45:06;;;;;;;5.65;1.20;;;;;;;23.02;49.35;99676.53;4082847;85;21111;-90
2022/08/08 12:51:13;;;;;;;3.87;1.00;;;;;;;22.89;49.57;99683.47;4121585;85;21056;-90
2022/08/08 12:57:22;;;;;;;1.62;1.25;;;;;;;22.77;49.60;99689.76;4115053;84;21193;-91
2022/08/08 13:03:28;;;;;;;3.25;0.98;;;;;;;22.91;49.23;99687.21;4126281;84;21049;-90
2022/08/08 13:09:44;;;;;;;5.17;0.97;;;;;;;22.81;50.01;99685.48;4130625;85;21652;-90
2022/08/08 13:15:49;;;;;;;5.30;1.07;;;;;;;22.85;50.80;99677.18;4106435;85;21137;-90
2022/08/08 13:21:51;;;;;;;3.65;0.95;;;;;;;22.94;50.63;99670.97;4109242;85;21759;-88
2022/08/08 13:27:55;;;;;;;2.50;1.20;;;;;;;22.90;50.74;99668.88;4101295;84;21077;-89
2022/08/08 13:33:58;;;;;;;5.80;1.20;;;;;;;22.85;50.63;99677.18;4099653;85;21024;-89
2022/08/08 13:40:03;;;;;;;5.25;0.98;;;;;;;22.77;50.10;99668.83;4074841;85;21606;-90
2022/08/08 13:46:11;;;;;;;3.43;1.17;;;;;;;22.88;49.94;99663.73;4102769;85;21051;-89
2022/08/08 13:52:17;;;;;;;2.85;0.80;;;;;;;23.07;49.91;99656.41;4109804;85;21127;-91
2022/08/08 13:58:19;;;;;;;1.98;0.80;;;;;;;23.14;49.89;99652.83;4104038;85;21633;-92
2022/08/08 14:04:23;;;;;;;4.12;0.90;;;;;;;23.05;49.15;99647.72;4107235;85;21078;-91
2022/08/08 14:10:25;;;;;;;3.40;0.90;;;;;;;22.95;48.90;99639.02;4106705;85;21133;-90
2022/08/08 14:16:28;;;;;;;2.65;0.90;;;;;;;22.88;49.00;99649.02;4091929;85;21058;-89
2022/08/08 14:22:29;;;;;;;3.02;0.65;;;;;;;22.91;48.83;99656.50;4136479;84;21043;-90
2022/08/08 14:28:32;;;;;;;2.22;0.88;;;;;;;22.94;48.29;99648.63;4145699;84;22004;-89
2022/08/08 14:34:33;;;;;;;3.42;0.78;;;;;;;22.96;48.27;99654.54;4180292;84;22315;-90
2022/08/08 14:40:40;;;;;;;2.15;1.07;;;;;;;22.86;47.81;99655.64;4162856;84;21027;-90
2022/08/08 14:46:42;;;;;;;1.42;0.85;;;;;;;22.74;48.60;99647.38;4178494;84;21072;-95
2022/08/08 14:53:00;;;;;;;3.27;0.88;;;;;;;22.81;48.68;99647.20;4178416;84;21026;-90
2022/08/08 14:59:04;;;;;;;1.85;0.78;;;;;;;22.79;48.08;99646.84;4180446;84;21010;-90
2022/08/08 15:05:08;;;;;;;6.60;0.88;;;;;;;22.64;48.33;99647.68;4180350;84;21057;-90
2022/08/08 15:11:10;;;;;;;3.12;0.80;;;;;;;22.43;48.61;99644.81;4167680;84;21008;-88
2022/08/08 15:17:12;;;;;;;1.87;0.70;;;;;;;22.32;47.76;99647.10;4176031;84;21114;-89
2022/08/08 15:23:13;;;;;;;3.12;0.95;;;;;;;22.19;47.85;99644.84;4129256;84;21087;-89
2022/08/08 15:29:15;;;;;;;1.60;0.70;;;;;;;22.16;48.32;99654.71;4110810;85;21075;-88
2022/08/08 15:35:16;;;;;;;2.00;0.93;;;;;;;22.17;48.75;99655.67;4109121;85;21062;-91
2022/08/08 15:41:18;;;;;;;3.35;1.00;;;;;;;22.07;48.43;99656.70;4115399;85;21636;-89
2022/08/08 15:47:21;;;;;;;5.47;1.10;;;;;;;22.09;48.76;99656.27;4112802;85;21018;-91
2022/08/08 15:53:24;;;;;;;2.60;0.90;;;;;;;22.11;48.49;99659.41;4116594;85;20994;-91
2022/08/08 15:59:25;;;;;;;4.05;1.22;;;;;;;22.06;49.02;99658.54;4119403;84;21113;-90
2022/08/08 16:05:28;;;;;;;1.90;0.80;;;;;;;;;;4104954;85;21038;-89
2022/08/08 16:11:29;;;;;;;6.37;0.90;;;;;;;21.96;49.51;99654.79;4040435;87;21637;-88
2022/08/08 16:17:30;;;;;;;3.35;0.90;;;;;;;21.88;49.33;99660.36;4080174;86;21089;-89
2022/08/08 16:23:32;;;;;;;1.98;0.88;;;;;;;21.81;49.38;99670.30;4088715;85;21030;-90
2022/08/08 16:29:33;;;;;;;2.95;0.90;;;;;;;21.74;49.48;99673.20;4098367;85;21114;-89
2022/08/08 16:35:34;;;;;;;5.35;0.80;;;;;;;21.66;49.92;99671.19;4098081;85;21057;-90
2022/08/08 16:41:36;;;;;;;1.92;1.00;;;;;;;21.54;49.88;99669.69;4098425;85;21065;-89
2022/08/08 16:47:37;;;;;;;5.20;1.52;;;;;;;21.48;50.56;99668.64;4099101;85;21010;-90
2022/08/08 16:53:38;;;;;;;2.35;1.00;;;;;;;21.44;50.93;99670.70;4101576;85;22063;-88
2022/08/08 16:59:40;;;;;;;3.98;1.32;;;;;;;21.42;51.32;99670.37;4099752;85;21002;-90
2022/08/08 17:05:41;;;;;;;1.40;0.90;;;;;;;21.33;51.76;99675.12;4122453;85;21054;-88
2022/08/08 17:11:44;;;;;;;2.62;1.22;;;;;;;21.21;52.41;99673.59;4103069;85;21039;-89
2022/08/08 17:17:48;;;;;;;2.87;0.88;;;;;;;21.12;53.04;99671.41;4091494;85;21637;-88
2022/08/08 17:23:49;;;;;;;3.52;1.30;;;;;;;21.05;53.60;99672.92;4077120;85;21094;-90
2022/08/08 17:29:53;;;;;;;3.52;1.32;;;;;;;21.03;54.03;99685.72;4116346;85;21034;-91
2022/08/08 17:35:55;;;;;;;4.83;1.45;;;;;;;20.90;54.22;99686.94;4124227;85;21093;-90
2022/08/08 17:41:56;;;;;;;2.72;1.55;;;;;;;20.80;54.58;99692.68;4119648;85;21765;-90
2022/08/08 17:47:57;;;;;;;4.70;1.50;;;;;;;20.69;54.93;99695.67;4122085;85;21060;-91
2022/08/08 17:53:59;;;;;;;3.50;1.27;;;;;;;20.57;55.41;99694.91;4127013;85;21644;-88
2022/08/08 18:00:02;;;;;;;2.60;1.20;;;;;;;20.48;56.68;99710.58;4121351;85;21053;-88
2022/08/08 18:06:06;;;;;;;7.40;2.35;;;;;;;20.37;57.65;99716.33;4120514;85;21102;-90
2022/08/08 18:12:09;;;;;;;4.17;2.33;;;;;;;20.19;57.97;99714.43;4114686;85;21089;-89
2022/08/08 18:18:11;;;;;;;6.35;2.02;;;;;;;19.96;57.83;99711.59;4120377;85;21065;-92
2022/08/08 18:24:18;;;;;;;6.12;2.35;;;;;;;19.79;59.21;99723.77;4150183;84;21100;-90
2022/08/08 18:30:20;;;;;;;5.22;1.92;;;;;;;19.64;61.16;99723.17;4180881;84;21047;-91
2022/08/08 18:36:22;;;;;;;5.08;2.25;;;;;;;19.39;62.35;99734.41;4184501;84;21058;-87
2022/08/08 18:42:24;;;;;;;6.55;2.70;;;;;;;19.17;62.21;99740.03;4174136;84;22023;-89
2022/08/08 18:48:26;;;;;;;8.85;2.65;;;;;;;18.99;63.07;99750.53;4184096;84;21292;-90
2022/08/08 18:54:29;;;;;;;6.03;3.08;;;;;;;18.78;64.11;99759.85;4181802;84;21091;-89
2022/08/08 19:00:30;;;;;;;4.42;2.75;;;;;;;18.55;64.40;99766.02;4187504;84;21109;-88
2022/08/08 19:06:32;;;;;;;5.92;3.62;;;;;;;18.39;64.51;99776.84;4183161;84;21955;-89
2022/08/08 19:12:33;;;;;;;6.33;4.00;;;;;;;18.25;65.74;99776.12;4171107;84;21058;-88
2022/08/08 19:18:38;;;;;;;6.75;4.00;;;;;;;18.10;65.70;99771.89;4174008;84;21661;-90
2022/08/08 19:24:39;;;;;;;7.75;3.85;;;;;;;17.96;67.18;99775.53;4117091;84;21042;-88
2022/08/08 19:30:41;;;;;;;11.80;5.50;;;;;;;17.84;67.56;99773.23;4089494;85;21490;-88
2022/08/08 19:36:42;;;;;;;11.95;5.00;;;;;;;17.75;67.75;99763.79;4091858;85;21126;-92
2022/08/08 19:42:47;;;;;;;9.28;4.47;;;;;;;17.65;68.83;99766.80;4079167;86;21598;-88
2022/08/08 19:48:51;;;;;;;8.55;5.42;;;;;;;17.55;69.67;99766.87;4083028;83;73874;-85
2022/08/08 19:54:53;;;;;;;11.85;5.65;;;;;;;17.43;70.08;99772.83;4298558;81;20988;-85
2022/08/08 20:00:54;;;;;;;8.05;4.97;;;;;;;17.36;70.42;99780.56;4232073;81;20995;-85
2022/08/08 20:06:56;;;;;;;13.20;6.08;;;;;;;17.28;71.06;99774.86;4276937;81;21082;-85
2022/08/08 20:12:58;;;;;;;8.15;4.70;;;;;;;17.23;71.42;99775.88;4271082;82;21650;-85
2022/08/08 20:18:59;;;;;;;10.40;5.37;;;;;;;17.19;72.72;99774.50;4283581;81;21027;-85
2022/08/08 20:25:00;;;;;;;14.58;5.95;;;;;;;17.17;72.47;99774.90;4268880;81;21035;-84
2022/08/08 20:31:02;;;;;;;10.55;5.50;;;;;;;17.16;72.71;99769.16;4147444;83;21011;-85
2022/08/08 20:37:06;;;;;;;10.38;5.45;;;;;;;17.13;73.11;99774.10;4277454;81;21027;-85
2022/08/08 20:43:07;;;;;;;13.48;5.78;;;;;;;16.99;73.56;99776.91;4272719;81;21027;-85
2022/08/08 20:49:08;;;;;;;7.92;5.45;;;;;;;17.05;74.13;99773.16;4266731;81;21963;-85
2022/08/08 20:55:10;;;;;;;14.33;5.45;;;;;;;17.11;74.66;99781.23;4321702;81;21037;-86
2022/08/08 21:01:14;;;;;;;8.53;4.92;;;;;;;17.01;75.18;99786.19;4323528;81;21013;-85
2022/08/08 21:07:15;;;;;;;9.58;4.75;;;;;;;17.01;75.57;99780.07;4315092;81;20997;-85
2022/08/08 21:13:20;;;;;;;10.00;4.83;;;;;;;17.03;75.97;99778.29;4322947;81;21984;-85
2022/08/08 21:19:21;;;;;;;9.53;4.85;;;;;;;17.02;76.65;99772.57;4319574;80;20983;-85
2022/08/08 21:25:22;;;;;;;6.53;3.55;;;;;;;16.98;76.62;99782.25;4317433;81;22327;-85
2022/08/08 21:31:26;;;;;;;9.68;4.28;;;;;;;16.92;77.11;99778.91;4318473;81;21048;-85
2022/08/08 21:37:27;;;;;;;9.95;4.47;;;;;;;16.80;78.32;99783.48;4327624;81;21592;-85
2022/08/08 21:43:30;;;;;;;7.67;4.25;;;;;;;16.65;78.83;99790.98;4327185;81;20998;-85
2022/08/08 21:49:32;;;;;;;12.40;5.50;;;;;;;16.52;79.23;99791.80;4328281;80;22027;-85
2022/08/08 21:55:33;;;;;;;11.90;5.10;;;;;;;16.42;79.29;99790.58;4343576;80;21019;-84
2022/08/08 22:01:35;;;;;;;10.90;4.72;;;;;;;16.34;79.62;99792.34;4373240;80;21729;-85
2022/08/08 22:07:38;;;;;;;11.48;5.20;;;;;;;16.32;80.20;99783.06;4355529;80;20980;-84
2022/08/08 22:13:39;;;;;;;8.33;4.92;;;;;;;16.28;80.56;99785.63;4348191;80;21038;-85
2022/08/08 22:19:40;;;;;;;8.18;5.42;;;;;;;16.23;80.95;99787.39;4358376;80;21367;-85
2022/08/08 22:25:42;;;;;;;8.48;4.97;;;;;;;16.21;81.34;99787.02;4350686;80;21538;-84
2022/08/08 22:31:43;;;;;;;9.70;5.35;;;;;;;16.09;81.70;99797.05;4359992;80;20994;-85
2022/08/08 22:37:44;;;;;;;8.55;5.55;;;;;;;16.01;81.80;99789.92;4361598;80;21007;-85
2022/08/08 22:43:52;;;;;;;9.43;4.25;;;;;;;16.08;82.41;99792.71;4454891;80;21002;-85
2022/08/08 22:49:51;;;;;;;11.65;5.28;;;;;;;16.11;83.12;99795.48;4366717;80;20996;-85
2022/08/08 22:55:53;;;;;;;9.93;4.90;;;;;;;16.08;83.44;99799.62;4328218;80;21008;-85
2022/08/08 23:01:57;;;;;;;9.48;4.70;;;;;;;16.11;83.90;99796.87;4262951;80;21965;-84
2022/08/08 23:07:58;;;;;;;10.58;4.75;;;;;;;16.14;84.50;99802.98;4294140;80;21039;-85
2022/08/08 23:14:03;;;;;;;8.78;4.58;;;;;;;16.17;84.66;99807.73;4401578;80;21021;-84
2022/08/08 23:20:05;;;;;;;10.15;5.33;;;;;;;16.19;85.45;99803.19;4335710;80;20980;-84
2022/08/08 23:26:07;;;;;;;8.20;4.12;;;;;;;16.17;85.43;99803.58;4287427;80;21491;-85
2022/08/08 23:32:09;;;;;;;7.58;4.00;;;;;;;16.18;85.94;99809.87;4332325;80;21603;-85
2022/08/08 23:38:11;;;;;;;7.62;4.28;;;;;;;16.14;86.08;99805.75;4334447;80;21488;-85
2022/08/08 23:44:13;;;;;;;6.83;4.22;;;;;;;16.11;86.11;99801.59;4337029;80;20991;-85
2022/08/08 23:50:14;;;;;;;8.65;3.77;;;;;;;16.05;86.13;99803.97;4325540;80;21043;-84
2022/08/08 23:56:16;;;;;;;7.75;4.10;;;;;;;15.98;86.79;99797.03;4368394;80;21968;-85
